sensor_id;sensor_type;location;lat;lon;timestamp;P1;durP1;ratioP1;P2;durP2;ratioP2
75189;SDS011;69198;44.694;37.790;2023-07-13T00:00:10;6.93;;;3.22;;
75189;SDS011;69198;44.694;37.790;2023-07-13T00:01:15;9.35;;;3.42;;
75189;SDS011;69198;44.694;37.790;2023-07-13T00:02:17;6.88;;;3.15;;
75189;SDS011;69198;44.694;37.790;2023-07-13T00:03:18;7.68;;;3.10;;
75189;SDS011;69198;44.694;37.790;2023-07-13T00:04:20;6.27;;;3.27;;
75189;SDS011;69198;44.694;37.790;2023-07-13T00:05:23;8.63;;;3.33;;
75189;SDS011;69198;44.694;37.790;2023-07-13T00:06:24;8.75;;;3.25;;
75189;SDS011;69198;44.694;37.790;2023-07-13T00:07:25;7.47;;;3.20;;
75189;SDS011;69198;44.694;37.790;2023-07-13T00:08:26;7.70;;;3.30;;
75189;SDS011;69198;44.694;37.790;2023-07-13T00:09:30;7.50;;;3.33;;
75189;SDS011;69198;44.694;37.790;2023-07-13T00:10:31;7.43;;;3.60;;
75189;SDS011;69198;44.694;37.790;2023-07-13T00:11:32;7.05;;;3.78;;
75189;SDS011;69198;44.694;37.790;2023-07-13T00:12:34;8.27;;;3.50;;
75189;SDS011;69198;44.694;37.790;2023-07-13T00:13:36;7.60;;;3.28;;
75189;SDS011;69198;44.694;37.790;2023-07-13T00:14:39;8.60;;;3.45;;
75189;SDS011;69198;44.694;37.790;2023-07-13T00:15:40;7.88;;;3.60;;
75189;SDS011;69198;44.694;37.790;2023-07-13T00:16:41;8.70;;;3.72;;
75189;SDS011;69198;44.694;37.790;2023-07-13T00:17:43;11.43;;;3.90;;
75189;SDS011;69198;44.694;37.790;2023-07-13T00:18:45;9.05;;;3.78;;
75189;SDS011;69198;44.694;37.790;2023-07-13T00:19:47;8.82;;;4.18;;
75189;SDS011;69198;44.694;37.790;2023-07-13T00:20:48;7.83;;;3.70;;
75189;SDS011;69198;44.694;37.790;2023-07-13T00:21:49;9.90;;;3.70;;
75189;SDS011;69198;44.694;37.790;2023-07-13T00:22:51;10.07;;;3.90;;
75189;SDS011;69198;44.694;37.790;2023-07-13T00:23:55;8.57;;;4.10;;
75189;SDS011;69198;44.694;37.790;2023-07-13T00:24:56;9.57;;;3.88;;
75189;SDS011;69198;44.694;37.790;2023-07-13T00:25:57;8.88;;;3.80;;
75189;SDS011;69198;44.694;37.790;2023-07-13T00:26:58;7.63;;;4.00;;
75189;SDS011;69198;44.694;37.790;2023-07-13T00:27:59;9.55;;;4.30;;
75189;SDS011;69198;44.694;37.790;2023-07-13T00:29:00;8.93;;;4.30;;
75189;SDS011;69198;44.694;37.790;2023-07-13T00:30:03;8.27;;;3.90;;
75189;SDS011;69198;44.694;37.790;2023-07-13T00:31:05;10.32;;;4.30;;
75189;SDS011;69198;44.694;37.790;2023-07-13T00:32:07;9.68;;;4.18;;
75189;SDS011;69198;44.694;37.790;2023-07-13T00:33:10;9.25;;;4.43;;
75189;SDS011;69198;44.694;37.790;2023-07-13T00:34:11;10.32;;;4.45;;
75189;SDS011;69198;44.694;37.790;2023-07-13T00:35:13;10.57;;;4.10;;
75189;SDS011;69198;44.694;37.790;2023-07-13T00:36:15;8.70;;;4.20;;
75189;SDS011;69198;44.694;37.790;2023-07-13T00:37:16;11.23;;;4.57;;
75189;SDS011;69198;44.694;37.790;2023-07-13T00:38:17;9.57;;;4.80;;
75189;SDS011;69198;44.694;37.790;2023-07-13T00:39:18;8.27;;;3.97;;
75189;SDS011;69198;44.694;37.790;2023-07-13T00:40:21;9.65;;;4.45;;
75189;SDS011;69198;44.694;37.790;2023-07-13T00:41:22;11.20;;;4.82;;
75189;SDS011;69198;44.694;37.790;2023-07-13T00:42:23;8.82;;;4.43;;
75189;SDS011;69198;44.694;37.790;2023-07-13T00:43:25;11.00;;;4.57;;
75189;SDS011;69198;44.694;37.790;2023-07-13T00:44:28;9.10;;;4.20;;
75189;SDS011;69198;44.694;37.790;2023-07-13T00:46:31;9.40;;;4.50;;
75189;SDS011;69198;44.694;37.790;2023-07-13T00:47:33;10.10;;;4.95;;
75189;SDS011;69198;44.694;37.790;2023-07-13T00:48:34;8.35;;;5.00;;
75189;SDS011;69198;44.694;37.790;2023-07-13T00:49:37;8.52;;;4.90;;
75189;SDS011;69198;44.694;37.790;2023-07-13T00:50:38;8.52;;;4.25;;
75189;SDS011;69198;44.694;37.790;2023-07-13T00:51:43;10.00;;;4.63;;
75189;SDS011;69198;44.694;37.790;2023-07-13T00:52:50;9.77;;;4.75;;
75189;SDS011;69198;44.694;37.790;2023-07-13T00:53:54;9.48;;;4.35;;
75189;SDS011;69198;44.694;37.790;2023-07-13T00:54:58;9.23;;;4.80;;
75189;SDS011;69198;44.694;37.790;2023-07-13T00:55:59;8.63;;;5.05;;
75189;SDS011;69198;44.694;37.790;2023-07-13T00:57:02;8.98;;;4.50;;
75189;SDS011;69198;44.694;37.790;2023-07-13T00:58:06;11.50;;;5.43;;
75189;SDS011;69198;44.694;37.790;2023-07-13T00:59:08;10.45;;;4.95;;
75189;SDS011;69198;44.694;37.790;2023-07-13T01:00:11;9.55;;;4.95;;
75189;SDS011;69198;44.694;37.790;2023-07-13T01:01:12;10.70;;;5.47;;
75189;SDS011;69198;44.694;37.790;2023-07-13T01:02:13;10.25;;;5.65;;
75189;SDS011;69198;44.694;37.790;2023-07-13T01:03:15;9.13;;;5.22;;
75189;SDS011;69198;44.694;37.790;2023-07-13T01:04:17;11.27;;;5.00;;
75189;SDS011;69198;44.694;37.790;2023-07-13T01:05:20;12.57;;;5.03;;
75189;SDS011;69198;44.694;37.790;2023-07-13T01:06:22;10.90;;;5.88;;
75189;SDS011;69198;44.694;37.790;2023-07-13T01:07:23;10.45;;;5.80;;
75189;SDS011;69198;44.694;37.790;2023-07-13T01:08:25;10.35;;;4.97;;
75189;SDS011;69198;44.694;37.790;2023-07-13T01:09:27;9.85;;;4.97;;
75189;SDS011;69198;44.694;37.790;2023-07-13T01:10:28;10.88;;;5.60;;
75189;SDS011;69198;44.694;37.790;2023-07-13T01:11:29;9.52;;;5.38;;
75189;SDS011;69198;44.694;37.790;2023-07-13T01:12:30;11.23;;;5.40;;
75189;SDS011;69198;44.694;37.790;2023-07-13T01:13:31;9.87;;;5.57;;
75189;SDS011;69198;44.694;37.790;2023-07-13T01:14:32;9.85;;;5.28;;
75189;SDS011;69198;44.694;37.790;2023-07-13T01:16:42;12.00;;;5.10;;
75189;SDS011;69198;44.694;37.790;2023-07-13T01:17:47;9.48;;;5.07;;
75189;SDS011;69198;44.694;37.790;2023-07-13T01:18:48;11.32;;;5.45;;
75189;SDS011;69198;44.694;37.790;2023-07-13T01:19:50;10.02;;;5.30;;
75189;SDS011;69198;44.694;37.790;2023-07-13T01:20:55;8.65;;;4.88;;
75189;SDS011;69198;44.694;37.790;2023-07-13T01:21:57;10.37;;;5.40;;
75189;SDS011;69198;44.694;37.790;2023-07-13T01:22:58;9.20;;;5.05;;
75189;SDS011;69198;44.694;37.790;2023-07-13T01:24:00;9.32;;;5.30;;
75189;SDS011;69198;44.694;37.790;2023-07-13T01:25:02;10.77;;;5.35;;
75189;SDS011;69198;44.694;37.790;2023-07-13T01:26:03;11.10;;;5.35;;
75189;SDS011;69198;44.694;37.790;2023-07-13T01:27:05;9.68;;;4.95;;
75189;SDS011;69198;44.694;37.790;2023-07-13T01:28:08;11.57;;;5.43;;
75189;SDS011;69198;44.694;37.790;2023-07-13T01:29:09;10.05;;;5.20;;
75189;SDS011;69198;44.694;37.790;2023-07-13T01:30:13;9.95;;;5.38;;
75189;SDS011;69198;44.694;37.790;2023-07-13T01:31:14;10.83;;;5.43;;
75189;SDS011;69198;44.694;37.790;2023-07-13T01:32:16;10.15;;;5.57;;
75189;SDS011;69198;44.694;37.790;2023-07-13T01:33:24;8.45;;;5.25;;
75189;SDS011;69198;44.694;37.790;2023-07-13T01:34:27;11.88;;;5.57;;
75189;SDS011;69198;44.694;37.790;2023-07-13T01:35:28;11.77;;;5.47;;
75189;SDS011;69198;44.694;37.790;2023-07-13T01:36:29;8.77;;;5.10;;
75189;SDS011;69198;44.694;37.790;2023-07-13T01:37:30;10.30;;;5.72;;
75189;SDS011;69198;44.694;37.790;2023-07-13T01:38:34;9.50;;;5.55;;
75189;SDS011;69198;44.694;37.790;2023-07-13T01:39:35;12.20;;;5.63;;
75189;SDS011;69198;44.694;37.790;2023-07-13T01:40:37;10.60;;;5.78;;
75189;SDS011;69198;44.694;37.790;2023-07-13T01:41:38;12.35;;;5.68;;
75189;SDS011;69198;44.694;37.790;2023-07-13T01:42:39;9.88;;;5.80;;
75189;SDS011;69198;44.694;37.790;2023-07-13T01:43:40;11.57;;;5.80;;
75189;SDS011;69198;44.694;37.790;2023-07-13T01:44:41;9.05;;;5.63;;
75189;SDS011;69198;44.694;37.790;2023-07-13T01:45:43;10.25;;;6.10;;
75189;SDS011;69198;44.694;37.790;2023-07-13T01:46:45;10.00;;;5.70;;
75189;SDS011;69198;44.694;37.790;2023-07-13T01:47:46;9.82;;;6.43;;
75189;SDS011;69198;44.694;37.790;2023-07-13T01:48:47;11.15;;;5.90;;
75189;SDS011;69198;44.694;37.790;2023-07-13T01:49:48;11.07;;;6.63;;
75189;SDS011;69198;44.694;37.790;2023-07-13T01:50:50;10.88;;;6.40;;
75189;SDS011;69198;44.694;37.790;2023-07-13T01:51:51;11.48;;;6.18;;
75189;SDS011;69198;44.694;37.790;2023-07-13T01:52:52;11.05;;;6.55;;
75189;SDS011;69198;44.694;37.790;2023-07-13T01:53:54;12.50;;;6.28;;
75189;SDS011;69198;44.694;37.790;2023-07-13T01:54:55;12.50;;;6.18;;
75189;SDS011;69198;44.694;37.790;2023-07-13T01:55:56;12.07;;;7.05;;
75189;SDS011;69198;44.694;37.790;2023-07-13T01:56:57;12.27;;;6.68;;
75189;SDS011;69198;44.694;37.790;2023-07-13T01:57:58;12.85;;;6.60;;
75189;SDS011;69198;44.694;37.790;2023-07-13T01:58:59;12.50;;;6.37;;
75189;SDS011;69198;44.694;37.790;2023-07-13T02:00:03;12.50;;;6.65;;
75189;SDS011;69198;44.694;37.790;2023-07-13T02:01:16;11.10;;;6.45;;
75189;SDS011;69198;44.694;37.790;2023-07-13T02:02:17;11.02;;;6.30;;
75189;SDS011;69198;44.694;37.790;2023-07-13T02:03:18;10.23;;;6.03;;
75189;SDS011;69198;44.694;37.790;2023-07-13T02:04:20;12.73;;;6.68;;
75189;SDS011;69198;44.694;37.790;2023-07-13T02:05:21;11.77;;;6.95;;
75189;SDS011;69198;44.694;37.790;2023-07-13T02:06:22;11.20;;;6.90;;
75189;SDS011;69198;44.694;37.790;2023-07-13T02:07:23;10.40;;;6.20;;
75189;SDS011;69198;44.694;37.790;2023-07-13T02:08:25;11.00;;;6.47;;
75189;SDS011;69198;44.694;37.790;2023-07-13T02:09:26;12.23;;;6.55;;
75189;SDS011;69198;44.694;37.790;2023-07-13T02:10:27;13.35;;;6.72;;
75189;SDS011;69198;44.694;37.790;2023-07-13T02:11:29;11.73;;;7.30;;
75189;SDS011;69198;44.694;37.790;2023-07-13T02:12:34;9.63;;;6.35;;
75189;SDS011;69198;44.694;37.790;2023-07-13T02:13:35;11.55;;;6.25;;
75189;SDS011;69198;44.694;37.790;2023-07-13T02:14:36;9.60;;;6.32;;
75189;SDS011;69198;44.694;37.790;2023-07-13T02:15:39;11.80;;;7.18;;
75189;SDS011;69198;44.694;37.790;2023-07-13T02:16:41;12.27;;;7.10;;
75189;SDS011;69198;44.694;37.790;2023-07-13T02:17:42;11.25;;;6.53;;
75189;SDS011;69198;44.694;37.790;2023-07-13T02:18:43;11.32;;;6.82;;
75189;SDS011;69198;44.694;37.790;2023-07-13T02:19:44;12.48;;;6.50;;
75189;SDS011;69198;44.694;37.790;2023-07-13T02:20:45;11.13;;;6.18;;
75189;SDS011;69198;44.694;37.790;2023-07-13T02:21:46;11.98;;;6.53;;
75189;SDS011;69198;44.694;37.790;2023-07-13T02:22:47;12.32;;;7.20;;
75189;SDS011;69198;44.694;37.790;2023-07-13T02:23:48;11.13;;;6.55;;
75189;SDS011;69198;44.694;37.790;2023-07-13T02:24:50;11.77;;;6.90;;
75189;SDS011;69198;44.694;37.790;2023-07-13T02:25:56;10.85;;;6.82;;
75189;SDS011;69198;44.694;37.790;2023-07-13T02:26:57;9.77;;;6.43;;
75189;SDS011;69198;44.694;37.790;2023-07-13T02:27:58;11.02;;;6.63;;
75189;SDS011;69198;44.694;37.790;2023-07-13T02:28:59;13.18;;;7.30;;
75189;SDS011;69198;44.694;37.790;2023-07-13T02:30:00;12.05;;;6.63;;
75189;SDS011;69198;44.694;37.790;2023-07-13T02:31:09;10.65;;;6.60;;
75189;SDS011;69198;44.694;37.790;2023-07-13T02:32:12;10.73;;;6.22;;
75189;SDS011;69198;44.694;37.790;2023-07-13T02:33:14;12.25;;;6.78;;
75189;SDS011;69198;44.694;37.790;2023-07-13T02:34:15;10.57;;;6.83;;
75189;SDS011;69198;44.694;37.790;2023-07-13T02:35:16;11.65;;;7.13;;
75189;SDS011;69198;44.694;37.790;2023-07-13T02:36:17;14.50;;;7.32;;
75189;SDS011;69198;44.694;37.790;2023-07-13T02:37:19;14.00;;;6.75;;
75189;SDS011;69198;44.694;37.790;2023-07-13T02:38:21;11.23;;;6.82;;
75189;SDS011;69198;44.694;37.790;2023-07-13T02:39:24;11.80;;;7.07;;
75189;SDS011;69198;44.694;37.790;2023-07-13T02:40:25;11.55;;;7.30;;
75189;SDS011;69198;44.694;37.790;2023-07-13T02:41:26;12.63;;;8.15;;
75189;SDS011;69198;44.694;37.790;2023-07-13T02:42:27;11.60;;;7.32;;
75189;SDS011;69198;44.694;37.790;2023-07-13T02:43:28;10.90;;;7.07;;
75189;SDS011;69198;44.694;37.790;2023-07-13T02:44:30;13.20;;;7.30;;
75189;SDS011;69198;44.694;37.790;2023-07-13T02:45:31;11.10;;;7.30;;
75189;SDS011;69198;44.694;37.790;2023-07-13T02:46:33;13.95;;;7.63;;
75189;SDS011;69198;44.694;37.790;2023-07-13T02:47:35;11.70;;;7.20;;
75189;SDS011;69198;44.694;37.790;2023-07-13T02:48:37;12.02;;;7.25;;
75189;SDS011;69198;44.694;37.790;2023-07-13T02:49:39;13.63;;;7.50;;
75189;SDS011;69198;44.694;37.790;2023-07-13T02:50:40;12.80;;;6.95;;
75189;SDS011;69198;44.694;37.790;2023-07-13T02:51:41;13.67;;;7.17;;
75189;SDS011;69198;44.694;37.790;2023-07-13T02:52:42;10.90;;;7.28;;
75189;SDS011;69198;44.694;37.790;2023-07-13T02:53:43;11.32;;;7.25;;
75189;SDS011;69198;44.694;37.790;2023-07-13T02:54:44;11.38;;;7.32;;
75189;SDS011;69198;44.694;37.790;2023-07-13T02:55:45;12.23;;;7.40;;
75189;SDS011;69198;44.694;37.790;2023-07-13T02:56:48;14.77;;;8.00;;
75189;SDS011;69198;44.694;37.790;2023-07-13T02:57:50;15.82;;;7.60;;
75189;SDS011;69198;44.694;37.790;2023-07-13T02:58:51;12.85;;;7.60;;
75189;SDS011;69198;44.694;37.790;2023-07-13T02:59:53;11.90;;;7.10;;
75189;SDS011;69198;44.694;37.790;2023-07-13T03:00:55;12.43;;;7.25;;
75189;SDS011;69198;44.694;37.790;2023-07-13T03:01:56;13.63;;;7.37;;
75189;SDS011;69198;44.694;37.790;2023-07-13T03:02:57;13.60;;;7.88;;
75189;SDS011;69198;44.694;37.790;2023-07-13T03:03:59;13.25;;;7.40;;
75189;SDS011;69198;44.694;37.790;2023-07-13T03:05:00;14.10;;;7.47;;
75189;SDS011;69198;44.694;37.790;2023-07-13T03:06:02;16.15;;;7.38;;
75189;SDS011;69198;44.694;37.790;2023-07-13T03:07:11;11.52;;;6.97;;
75189;SDS011;69198;44.694;37.790;2023-07-13T03:08:14;11.70;;;7.50;;
75189;SDS011;69198;44.694;37.790;2023-07-13T03:09:17;11.23;;;7.53;;
75189;SDS011;69198;44.694;37.790;2023-07-13T03:10:23;11.98;;;7.38;;
75189;SDS011;69198;44.694;37.790;2023-07-13T03:11:25;14.15;;;7.53;;
75189;SDS011;69198;44.694;37.790;2023-07-13T03:12:38;12.27;;;7.90;;
75189;SDS011;69198;44.694;37.790;2023-07-13T03:13:44;12.02;;;7.40;;
75189;SDS011;69198;44.694;37.790;2023-07-13T03:14:46;12.55;;;7.60;;
75189;SDS011;69198;44.694;37.790;2023-07-13T03:15:48;13.38;;;8.13;;
75189;SDS011;69198;44.694;37.790;2023-07-13T03:16:49;13.35;;;7.72;;
75189;SDS011;69198;44.694;37.790;2023-07-13T03:17:50;11.68;;;7.60;;
75189;SDS011;69198;44.694;37.790;2023-07-13T03:18:51;12.02;;;7.75;;
75189;SDS011;69198;44.694;37.790;2023-07-13T03:19:52;12.02;;;7.50;;
75189;SDS011;69198;44.694;37.790;2023-07-13T03:20:55;12.65;;;7.68;;
75189;SDS011;69198;44.694;37.790;2023-07-13T03:21:56;16.90;;;7.57;;
75189;SDS011;69198;44.694;37.790;2023-07-13T03:22:57;13.07;;;7.47;;
75189;SDS011;69198;44.694;37.790;2023-07-13T03:23:58;14.07;;;7.97;;
75189;SDS011;69198;44.694;37.790;2023-07-13T03:24:59;12.02;;;7.57;;
75189;SDS011;69198;44.694;37.790;2023-07-13T03:26:08;11.05;;;7.05;;
75189;SDS011;69198;44.694;37.790;2023-07-13T03:27:15;13.63;;;7.35;;
75189;SDS011;69198;44.694;37.790;2023-07-13T03:28:17;12.80;;;7.40;;
75189;SDS011;69198;44.694;37.790;2023-07-13T03:29:18;12.90;;;7.65;;
75189;SDS011;69198;44.694;37.790;2023-07-13T03:30:20;12.75;;;7.50;;
75189;SDS011;69198;44.694;37.790;2023-07-13T03:31:24;12.83;;;7.90;;
75189;SDS011;69198;44.694;37.790;2023-07-13T03:32:26;13.23;;;7.22;;
75189;SDS011;69198;44.694;37.790;2023-07-13T03:33:28;12.32;;;7.65;;
75189;SDS011;69198;44.694;37.790;2023-07-13T03:34:29;11.10;;;6.90;;
75189;SDS011;69198;44.694;37.790;2023-07-13T03:35:30;14.02;;;7.57;;
75189;SDS011;69198;44.694;37.790;2023-07-13T03:36:33;11.45;;;7.45;;
75189;SDS011;69198;44.694;37.790;2023-07-13T03:37:37;13.25;;;7.68;;
75189;SDS011;69198;44.694;37.790;2023-07-13T03:38:47;12.38;;;7.07;;
75189;SDS011;69198;44.694;37.790;2023-07-13T03:39:52;12.85;;;7.07;;
75189;SDS011;69198;44.694;37.790;2023-07-13T03:40:54;12.75;;;6.97;;
75189;SDS011;69198;44.694;37.790;2023-07-13T03:41:56;11.80;;;7.67;;
75189;SDS011;69198;44.694;37.790;2023-07-13T03:42:57;11.18;;;7.18;;
75189;SDS011;69198;44.694;37.790;2023-07-13T03:43:58;11.95;;;7.32;;
75189;SDS011;69198;44.694;37.790;2023-07-13T03:45:01;10.80;;;6.70;;
75189;SDS011;69198;44.694;37.790;2023-07-13T03:46:05;12.80;;;7.28;;
75189;SDS011;69198;44.694;37.790;2023-07-13T03:47:06;10.98;;;7.32;;
75189;SDS011;69198;44.694;37.790;2023-07-13T03:48:09;11.10;;;6.82;;
75189;SDS011;69198;44.694;37.790;2023-07-13T03:49:10;11.75;;;6.32;;
75189;SDS011;69198;44.694;37.790;2023-07-13T03:50:12;12.32;;;7.22;;
75189;SDS011;69198;44.694;37.790;2023-07-13T03:51:14;10.30;;;6.40;;
75189;SDS011;69198;44.694;37.790;2023-07-13T03:52:16;11.03;;;6.50;;
75189;SDS011;69198;44.694;37.790;2023-07-13T03:53:17;10.65;;;6.78;;
75189;SDS011;69198;44.694;37.790;2023-07-13T03:54:20;12.18;;;6.93;;
75189;SDS011;69198;44.694;37.790;2023-07-13T03:55:21;11.40;;;6.72;;
75189;SDS011;69198;44.694;37.790;2023-07-13T03:56:22;11.48;;;6.53;;
75189;SDS011;69198;44.694;37.790;2023-07-13T03:57:24;11.63;;;6.97;;
75189;SDS011;69198;44.694;37.790;2023-07-13T03:58:27;12.23;;;7.05;;
75189;SDS011;69198;44.694;37.790;2023-07-13T03:59:50;10.23;;;6.22;;
75189;SDS011;69198;44.694;37.790;2023-07-13T04:00:52;11.90;;;6.82;;
75189;SDS011;69198;44.694;37.790;2023-07-13T04:01:54;10.93;;;6.63;;
75189;SDS011;69198;44.694;37.790;2023-07-13T04:02:55;14.40;;;7.28;;
75189;SDS011;69198;44.694;37.790;2023-07-13T04:03:57;11.38;;;6.57;;
75189;SDS011;69198;44.694;37.790;2023-07-13T04:04:58;11.48;;;6.57;;
75189;SDS011;69198;44.694;37.790;2023-07-13T04:06:00;10.65;;;5.95;;
75189;SDS011;69198;44.694;37.790;2023-07-13T04:07:02;11.90;;;6.10;;
75189;SDS011;69198;44.694;37.790;2023-07-13T04:08:03;10.95;;;6.18;;
75189;SDS011;69198;44.694;37.790;2023-07-13T04:09:07;10.85;;;6.22;;
75189;SDS011;69198;44.694;37.790;2023-07-13T04:10:09;10.02;;;6.07;;
75189;SDS011;69198;44.694;37.790;2023-07-13T04:11:10;10.82;;;6.05;;
75189;SDS011;69198;44.694;37.790;2023-07-13T04:12:12;10.20;;;6.10;;
75189;SDS011;69198;44.694;37.790;2023-07-13T04:13:13;9.77;;;5.68;;
75189;SDS011;69198;44.694;37.790;2023-07-13T04:14:15;10.55;;;6.00;;
75189;SDS011;69198;44.694;37.790;2023-07-13T04:15:16;9.68;;;5.63;;
75189;SDS011;69198;44.694;37.790;2023-07-13T04:16:17;10.88;;;6.00;;
75189;SDS011;69198;44.694;37.790;2023-07-13T04:17:19;9.10;;;6.00;;
75189;SDS011;69198;44.694;37.790;2023-07-13T04:18:20;9.23;;;5.90;;
75189;SDS011;69198;44.694;37.790;2023-07-13T04:19:21;9.20;;;5.38;;
75189;SDS011;69198;44.694;37.790;2023-07-13T04:20:22;9.30;;;5.55;;
75189;SDS011;69198;44.694;37.790;2023-07-13T04:21:25;10.53;;;5.23;;
75189;SDS011;69198;44.694;37.790;2023-07-13T04:22:29;10.82;;;5.80;;
75189;SDS011;69198;44.694;37.790;2023-07-13T04:23:30;8.95;;;5.78;;
75189;SDS011;69198;44.694;37.790;2023-07-13T04:24:31;9.43;;;5.28;;
75189;SDS011;69198;44.694;37.790;2023-07-13T04:25:32;9.20;;;5.32;;
75189;SDS011;69198;44.694;37.790;2023-07-13T04:26:33;9.98;;;5.55;;
75189;SDS011;69198;44.694;37.790;2023-07-13T04:27:36;10.02;;;5.47;;
75189;SDS011;69198;44.694;37.790;2023-07-13T04:28:39;9.57;;;5.82;;
75189;SDS011;69198;44.694;37.790;2023-07-13T04:29:40;9.10;;;5.50;;
75189;SDS011;69198;44.694;37.790;2023-07-13T04:30:42;9.02;;;5.57;;
75189;SDS011;69198;44.694;37.790;2023-07-13T04:31:43;9.68;;;5.35;;
75189;SDS011;69198;44.694;37.790;2023-07-13T04:32:44;9.00;;;5.68;;
75189;SDS011;69198;44.694;37.790;2023-07-13T04:33:45;8.98;;;5.18;;
75189;SDS011;69198;44.694;37.790;2023-07-13T04:34:46;8.65;;;5.30;;
75189;SDS011;69198;44.694;37.790;2023-07-13T04:35:47;9.80;;;5.30;;
75189;SDS011;69198;44.694;37.790;2023-07-13T04:36:49;9.05;;;5.20;;
75189;SDS011;69198;44.694;37.790;2023-07-13T04:37:51;10.17;;;5.40;;
75189;SDS011;69198;44.694;37.790;2023-07-13T04:38:51;9.65;;;5.65;;
75189;SDS011;69198;44.694;37.790;2023-07-13T04:39:54;8.52;;;4.85;;
75189;SDS011;69198;44.694;37.790;2023-07-13T04:40:56;9.23;;;5.30;;
75189;SDS011;69198;44.694;37.790;2023-07-13T04:41:58;9.48;;;5.10;;
75189;SDS011;69198;44.694;37.790;2023-07-13T04:42:59;9.32;;;5.38;;
75189;SDS011;69198;44.694;37.790;2023-07-13T04:44:00;8.95;;;5.30;;
75189;SDS011;69198;44.694;37.790;2023-07-13T04:45:03;7.78;;;4.35;;
75189;SDS011;69198;44.694;37.790;2023-07-13T04:46:05;8.73;;;4.73;;
75189;SDS011;69198;44.694;37.790;2023-07-13T04:47:13;9.45;;;4.90;;
75189;SDS011;69198;44.694;37.790;2023-07-13T04:48:14;8.48;;;4.97;;
75189;SDS011;69198;44.694;37.790;2023-07-13T04:49:15;8.30;;;4.45;;
75189;SDS011;69198;44.694;37.790;2023-07-13T04:50:16;8.32;;;4.80;;
75189;SDS011;69198;44.694;37.790;2023-07-13T04:51:21;7.28;;;4.45;;
75189;SDS011;69198;44.694;37.790;2023-07-13T04:52:22;8.27;;;4.45;;
75189;SDS011;69198;44.694;37.790;2023-07-13T04:53:23;8.13;;;4.50;;
75189;SDS011;69198;44.694;37.790;2023-07-13T04:54:25;7.80;;;5.00;;
75189;SDS011;69198;44.694;37.790;2023-07-13T04:55:26;9.90;;;4.75;;
75189;SDS011;69198;44.694;37.790;2023-07-13T04:56:31;8.25;;;5.10;;
75189;SDS011;69198;44.694;37.790;2023-07-13T04:57:33;7.57;;;4.50;;
75189;SDS011;69198;44.694;37.790;2023-07-13T04:58:40;8.25;;;4.57;;
75189;SDS011;69198;44.694;37.790;2023-07-13T04:59:41;8.32;;;4.60;;
75189;SDS011;69198;44.694;37.790;2023-07-13T05:00:44;8.43;;;4.60;;
75189;SDS011;69198;44.694;37.790;2023-07-13T05:01:46;8.73;;;4.60;;
75189;SDS011;69198;44.694;37.790;2023-07-13T05:02:47;10.60;;;5.47;;
75189;SDS011;69198;44.694;37.790;2023-07-13T05:03:48;8.70;;;4.97;;
75189;SDS011;69198;44.694;37.790;2023-07-13T05:04:49;9.10;;;5.00;;
75189;SDS011;69198;44.694;37.790;2023-07-13T05:05:59;7.90;;;4.95;;
75189;SDS011;69198;44.694;37.790;2023-07-13T05:07:05;9.10;;;4.68;;
75189;SDS011;69198;44.694;37.790;2023-07-13T05:08:06;8.57;;;5.00;;
75189;SDS011;69198;44.694;37.790;2023-07-13T05:09:07;8.38;;;4.63;;
75189;SDS011;69198;44.694;37.790;2023-07-13T05:10:09;9.73;;;5.00;;
75189;SDS011;69198;44.694;37.790;2023-07-13T05:11:10;10.32;;;4.80;;
75189;SDS011;69198;44.694;37.790;2023-07-13T05:12:11;7.40;;;4.43;;
75189;SDS011;69198;44.694;37.790;2023-07-13T05:13:12;8.73;;;4.20;;
75189;SDS011;69198;44.694;37.790;2023-07-13T05:14:13;7.68;;;4.53;;
75189;SDS011;69198;44.694;37.790;2023-07-13T05:15:16;7.47;;;4.43;;
75189;SDS011;69198;44.694;37.790;2023-07-13T05:16:21;7.93;;;4.60;;
75189;SDS011;69198;44.694;37.790;2023-07-13T05:17:22;8.30;;;4.80;;
75189;SDS011;69198;44.694;37.790;2023-07-13T05:18:23;9.50;;;4.90;;
75189;SDS011;69198;44.694;37.790;2023-07-13T05:19:24;7.55;;;5.05;;
75189;SDS011;69198;44.694;37.790;2023-07-13T05:20:26;10.63;;;4.90;;
75189;SDS011;69198;44.694;37.790;2023-07-13T05:21:27;7.90;;;4.63;;
75189;SDS011;69198;44.694;37.790;2023-07-13T05:22:29;9.95;;;4.57;;
75189;SDS011;69198;44.694;37.790;2023-07-13T05:23:30;8.95;;;4.97;;
75189;SDS011;69198;44.694;37.790;2023-07-13T05:24:31;8.43;;;5.03;;
75189;SDS011;69198;44.694;37.790;2023-07-13T05:25:32;7.65;;;4.10;;
75189;SDS011;69198;44.694;37.790;2023-07-13T05:26:33;8.88;;;4.13;;
75189;SDS011;69198;44.694;37.790;2023-07-13T05:27:34;6.68;;;3.58;;
75189;SDS011;69198;44.694;37.790;2023-07-13T05:28:36;7.80;;;3.67;;
75189;SDS011;69198;44.694;37.790;2023-07-13T05:29:37;7.95;;;3.90;;
75189;SDS011;69198;44.694;37.790;2023-07-13T05:30:38;8.25;;;3.58;;
75189;SDS011;69198;44.694;37.790;2023-07-13T05:31:39;8.00;;;3.78;;
75189;SDS011;69198;44.694;37.790;2023-07-13T05:32:40;8.25;;;3.65;;
75189;SDS011;69198;44.694;37.790;2023-07-13T05:33:42;8.85;;;3.60;;
75189;SDS011;69198;44.694;37.790;2023-07-13T05:34:43;6.68;;;2.95;;
75189;SDS011;69198;44.694;37.790;2023-07-13T05:35:44;8.73;;;4.43;;
75189;SDS011;69198;44.694;37.790;2023-07-13T05:36:45;7.70;;;3.37;;
75189;SDS011;69198;44.694;37.790;2023-07-13T05:37:46;7.93;;;3.60;;
75189;SDS011;69198;44.694;37.790;2023-07-13T05:38:50;8.88;;;3.67;;
75189;SDS011;69198;44.694;37.790;2023-07-13T05:39:51;8.07;;;3.90;;
75189;SDS011;69198;44.694;37.790;2023-07-13T05:40:53;7.10;;;4.22;;
75189;SDS011;69198;44.694;37.790;2023-07-13T05:41:56;7.32;;;3.97;;
75189;SDS011;69198;44.694;37.790;2023-07-13T05:42:57;8.50;;;3.80;;
75189;SDS011;69198;44.694;37.790;2023-07-13T05:43:58;8.50;;;3.58;;
75189;SDS011;69198;44.694;37.790;2023-07-13T05:44:59;7.53;;;3.05;;
75189;SDS011;69198;44.694;37.790;2023-07-13T05:46:00;6.30;;;2.63;;
75189;SDS011;69198;44.694;37.790;2023-07-13T05:47:01;7.40;;;3.10;;
75189;SDS011;69198;44.694;37.790;2023-07-13T05:48:02;6.32;;;2.80;;
75189;SDS011;69198;44.694;37.790;2023-07-13T05:49:03;6.72;;;2.65;;
75189;SDS011;69198;44.694;37.790;2023-07-13T05:50:04;7.80;;;2.83;;
75189;SDS011;69198;44.694;37.790;2023-07-13T05:51:05;6.40;;;3.20;;
75189;SDS011;69198;44.694;37.790;2023-07-13T05:52:06;8.60;;;4.00;;
75189;SDS011;69198;44.694;37.790;2023-07-13T05:53:07;7.37;;;3.70;;
75189;SDS011;69198;44.694;37.790;2023-07-13T05:54:09;7.50;;;2.85;;
75189;SDS011;69198;44.694;37.790;2023-07-13T05:55:10;8.65;;;3.78;;
75189;SDS011;69198;44.694;37.790;2023-07-13T05:56:11;7.07;;;3.55;;
75189;SDS011;69198;44.694;37.790;2023-07-13T05:57:12;6.95;;;3.40;;
75189;SDS011;69198;44.694;37.790;2023-07-13T05:58:18;8.50;;;4.15;;
75189;SDS011;69198;44.694;37.790;2023-07-13T05:59:20;8.10;;;4.10;;
75189;SDS011;69198;44.694;37.790;2023-07-13T06:00:21;7.93;;;4.73;;
75189;SDS011;69198;44.694;37.790;2023-07-13T06:01:22;9.27;;;5.00;;
75189;SDS011;69198;44.694;37.790;2023-07-13T06:02:24;8.45;;;4.72;;
75189;SDS011;69198;44.694;37.790;2023-07-13T06:03:26;7.60;;;4.72;;
75189;SDS011;69198;44.694;37.790;2023-07-13T06:04:27;7.75;;;4.50;;
75189;SDS011;69198;44.694;37.790;2023-07-13T06:05:28;8.48;;;4.35;;
75189;SDS011;69198;44.694;37.790;2023-07-13T06:06:29;7.72;;;4.30;;
75189;SDS011;69198;44.694;37.790;2023-07-13T06:07:31;6.75;;;3.65;;